sensor_id;sensor_type;location;lat;lon;timestamp;pressure;altitude;pressure_sealevel;temperature;humidity
46955;BME280;32708;51.212;6.788;2023-01-09T00:01:24;98889.16;;;10.05;100.00
46955;BME280;32708;51.212;6.788;2023-01-09T00:03:51;98909.03;;;9.67;100.00
46955;BME280;32708;51.212;6.788;2023-01-09T00:06:17;98902.28;;;9.80;100.00
46955;BME280;32708;51.212;6.788;2023-01-09T00:08:43;98897.53;;;9.77;100.00
46955;BME280;32708;51.212;6.788;2023-01-09T00:11:10;98900.69;;;9.59;100.00
46955;BME280;32708;51.212;6.788;2023-01-09T00:13:37;98895.53;;;9.74;100.00
46955;BME280;32708;51.212;6.788;2023-01-09T00:16:07;98895.25;;;9.59;100.00
46955;BME280;32708;51.212;6.788;2023-01-09T00:18:35;98891.22;;;9.53;100.00
46955;BME280;32708;51.212;6.788;2023-01-09T00:21:06;98906.19;;;9.44;100.00
46955;BME280;32708;51.212;6.788;2023-01-09T00:23:33;98897.88;;;9.36;100.00
46955;BME280;32708;51.212;6.788;2023-01-09T00:26:06;98900.56;;;9.72;100.00
46955;BME280;32708;51.212;6.788;2023-01-09T00:28:34;98900.94;;;9.89;100.00
46955;BME280;32708;51.212;6.788;2023-01-09T00:31:02;98894.53;;;10.01;100.00
46955;BME280;32708;51.212;6.788;2023-01-09T00:33:38;98900.28;;;9.77;100.00
46955;BME280;32708;51.212;6.788;2023-01-09T00:36:06;98891.66;;;9.75;100.00
46955;BME280;32708;51.212;6.788;2023-01-09T00:38:33;98898.84;;;10.02;100.00
46955;BME280;32708;51.212;6.788;2023-01-09T00:41:00;98909.34;;;10.00;100.00
46955;BME280;32708;51.212;6.788;2023-01-09T00:43:35;98909.94;;;10.13;100.00
46955;BME280;32708;51.212;6.788;2023-01-09T00:46:06;98904.44;;;9.90;100.00
46955;BME280;32708;51.212;6.788;2023-01-09T00:48:41;98917.25;;;9.70;100.00
46955;BME280;32708;51.212;6.788;2023-01-09T00:51:08;98922.44;;;9.95;100.00
46955;BME280;32708;51.212;6.788;2023-01-09T00:53:38;98927.91;;;9.95;100.00
46955;BME280;32708;51.212;6.788;2023-01-09T00:56:13;98931.34;;;9.91;100.00
46955;BME280;32708;51.212;6.788;2023-01-09T00:58:40;98934.13;;;9.76;100.00
46955;BME280;32708;51.212;6.788;2023-01-09T01:01:06;98938.75;;;9.56;100.00
46955;BME280;32708;51.212;6.788;2023-01-09T01:03:33;98933.63;;;9.89;100.00
46955;BME280;32708;51.212;6.788;2023-01-09T01:05:59;98935.16;;;9.87;100.00
46955;BME280;32708;51.212;6.788;2023-01-09T01:08:44;98931.13;;;9.81;100.00
46955;BME280;32708;51.212;6.788;2023-01-09T01:11:11;98938.97;;;10.02;100.00
46955;BME280;32708;51.212;6.788;2023-01-09T01:13:40;98927.69;;;9.84;100.00
46955;BME280;32708;51.212;6.788;2023-01-09T01:16:11;98937.66;;;10.15;100.00
46955;BME280;32708;51.212;6.788;2023-01-09T01:18:39;98941.53;;;9.95;100.00
46955;BME280;32708;51.212;6.788;2023-01-09T01:21:12;98946.31;;;10.20;100.00
46955;BME280;32708;51.212;6.788;2023-01-09T01:23:39;98949.78;;;9.98;100.00
46955;BME280;32708;51.212;6.788;2023-01-09T01:26:10;98955.50;;;10.12;100.00
46955;BME280;32708;51.212;6.788;2023-01-09T01:28:37;98960.16;;;9.92;100.00
46955;BME280;32708;51.212;6.788;2023-01-09T01:31:04;98955.81;;;10.07;100.00
46955;BME280;32708;51.212;6.788;2023-01-09T01:33:32;98943.31;;;9.87;100.00
46955;BME280;32708;51.212;6.788;2023-01-09T01:36:01;98946.13;;;10.10;100.00
46955;BME280;32708;51.212;6.788;2023-01-09T01:38:28;98937.88;;;10.26;100.00
46955;BME280;32708;51.212;6.788;2023-01-09T01:40:55;98941.66;;;10.21;100.00
46955;BME280;32708;51.212;6.788;2023-01-09T01:43:22;98943.53;;;9.98;100.00
46955;BME280;32708;51.212;6.788;2023-01-09T01:45:48;98958.97;;;10.09;100.00
46955;BME280;32708;51.212;6.788;2023-01-09T01:48:27;98952.94;;;10.00;100.00
46955;BME280;32708;51.212;6.788;2023-01-09T01:51:03;98965.78;;;9.80;100.00
46955;BME280;32708;51.212;6.788;2023-01-09T01:53:42;98959.97;;;10.01;100.00
46955;BME280;32708;51.212;6.788;2023-01-09T01:56:37;98960.06;;;10.43;100.00
46955;BME280;32708;51.212;6.788;2023-01-09T01:59:45;98974.94;;;9.72;100.00
46955;BME280;32708;51.212;6.788;2023-01-09T02:02:26;98977.94;;;9.67;100.00
46955;BME280;32708;51.212;6.788;2023-01-09T02:04:56;98980.72;;;9.51;100.00
46955;BME280;32708;51.212;6.788;2023-01-09T02:07:23;98985.38;;;9.86;100.00
46955;BME280;32708;51.212;6.788;2023-01-09T02:09:51;98988.78;;;9.83;100.00
46955;BME280;32708;51.212;6.788;2023-01-09T02:12:22;98982.19;;;9.84;100.00
46955;BME280;32708;51.212;6.788;2023-01-09T02:15:12;98986.44;;;9.81;100.00
46955;BME280;32708;51.212;6.788;2023-01-09T02:17:58;98984.31;;;10.10;100.00
46955;BME280;32708;51.212;6.788;2023-01-09T02:28:26;98983.50;;;9.55;100.00
46955;BME280;32708;51.212;6.788;2023-01-09T02:31:08;98980.88;;;9.43;100.00
46955;BME280;32708;51.212;6.788;2023-01-09T02:34:13;98977.97;;;9.51;100.00
46955;BME280;32708;51.212;6.788;2023-01-09T02:42:37;98999.47;;;9.56;100.00
46955;BME280;32708;51.212;6.788;2023-01-09T02:45:05;99007.81;;;9.79;100.00
46955;BME280;32708;51.212;6.788;2023-01-09T02:47:39;98983.38;;;10.02;100.00
46955;BME280;32708;51.212;6.788;2023-01-09T02:50:21;98997.06;;;9.71;100.00
46955;BME280;32708;51.212;6.788;2023-01-09T02:56:14;98983.13;;;9.91;100.00
46955;BME280;32708;51.212;6.788;2023-01-09T02:59:19;98986.97;;;9.71;100.00
46955;BME280;32708;51.212;6.788;2023-01-09T03:05:11;98989.84;;;9.78;100.00
46955;BME280;32708;51.212;6.788;2023-01-09T03:08:03;98986.78;;;9.45;100.00
46955;BME280;32708;51.212;6.788;2023-01-09T03:10:42;98998.09;;;9.47;100.00
46955;BME280;32708;51.212;6.788;2023-01-09T03:13:18;98995.69;;;9.61;100.00
46955;BME280;32708;51.212;6.788;2023-01-09T03:15:51;99006.09;;;9.55;100.00
46955;BME280;32708;51.212;6.788;2023-01-09T03:18:25;99004.53;;;9.38;100.00
46955;BME280;32708;51.212;6.788;2023-01-09T03:20:56;99013.94;;;9.25;100.00
46955;BME280;32708;51.212;6.788;2023-01-09T03:23:23;99009.19;;;9.38;100.00
46955;BME280;32708;51.212;6.788;2023-01-09T03:25:49;99019.81;;;9.43;100.00
46955;BME280;32708;51.212;6.788;2023-01-09T03:28:28;99011.50;;;9.71;100.00
46955;BME280;32708;51.212;6.788;2023-01-09T03:30:54;99014.13;;;9.83;100.00
46955;BME280;32708;51.212;6.788;2023-01-09T03:33:20;99028.78;;;9.44;100.00
46955;BME280;32708;51.212;6.788;2023-01-09T03:35:46;99029.41;;;9.37;100.00
46955;BME280;32708;51.212;6.788;2023-01-09T03:38:12;99026.84;;;9.44;100.00
46955;BME280;32708;51.212;6.788;2023-01-09T03:40:40;99023.13;;;9.68;100.00
46955;BME280;32708;51.212;6.788;2023-01-09T03:43:08;99033.78;;;9.57;100.00
46955;BME280;32708;51.212;6.788;2023-01-09T03:45:34;99037.13;;;9.35;100.00
46955;BME280;32708;51.212;6.788;2023-01-09T03:48:00;99032.47;;;9.20;100.00
46955;BME280;32708;51.212;6.788;2023-01-09T03:50:26;99036.25;;;9.31;100.00
46955;BME280;32708;51.212;6.788;2023-01-09T03:52:52;99028.22;;;9.06;100.00
46955;BME280;32708;51.212;6.788;2023-01-09T03:55:18;99022.63;;;9.15;100.00
46955;BME280;32708;51.212;6.788;2023-01-09T03:57:45;99029.41;;;9.37;100.00
46955;BME280;32708;51.212;6.788;2023-01-09T04:00:12;99018.50;;;9.05;100.00
46955;BME280;32708;51.212;6.788;2023-01-09T04:02:38;99025.09;;;9.04;100.00
46955;BME280;32708;51.212;6.788;2023-01-09T04:05:05;99030.69;;;8.80;100.00
46955;BME280;32708;51.212;6.788;2023-01-09T04:07:31;99022.28;;;9.01;100.00
46955;BME280;32708;51.212;6.788;2023-01-09T04:09:57;99027.63;;;8.97;100.00
46955;BME280;32708;51.212;6.788;2023-01-09T04:12:23;99023.50;;;8.88;100.00
46955;BME280;32708;51.212;6.788;2023-01-09T04:14:49;99023.59;;;8.63;100.00
46955;BME280;32708;51.212;6.788;2023-01-09T04:17:16;99033.03;;;8.66;100.00
46955;BME280;32708;51.212;6.788;2023-01-09T04:19:42;99033.28;;;8.76;100.00
46955;BME280;32708;51.212;6.788;2023-01-09T04:22:08;99029.44;;;8.49;100.00
46955;BME280;32708;51.212;6.788;2023-01-09T04:24:34;99028.25;;;8.63;100.00
46955;BME280;32708;51.212;6.788;2023-01-09T04:27:00;99032.94;;;8.78;100.00
46955;BME280;32708;51.212;6.788;2023-01-09T04:29:26;99036.38;;;8.91;100.00
46955;BME280;32708;51.212;6.788;2023-01-09T04:31:53;99045.28;;;8.60;100.00
46955;BME280;32708;51.212;6.788;2023-01-09T04:34:19;99048.00;;;8.60;100.00
46955;BME280;32708;51.212;6.788;2023-01-09T04:36:53;99043.03;;;8.49;100.00
46955;BME280;32708;51.212;6.788;2023-01-09T04:39:20;99048.16;;;8.51;100.00
46955;BME280;32708;51.212;6.788;2023-01-09T04:41:46;99054.78;;;8.38;100.00
46955;BME280;32708;51.212;6.788;2023-01-09T04:44:24;99056.63;;;8.77;100.00
46955;BME280;32708;51.212;6.788;2023-01-09T04:46:55;99064.88;;;8.25;100.00
46955;BME280;32708;51.212;6.788;2023-01-09T04:49:23;99064.44;;;8.23;100.00
46955;BME280;32708;51.212;6.788;2023-01-09T04:51:49;99064.38;;;8.47;100.00
46955;BME280;32708;51.212;6.788;2023-01-09T04:54:15;99068.88;;;8.15;100.00
46955;BME280;32708;51.212;6.788;2023-01-09T04:56:42;99059.88;;;8.39;100.00
46955;BME280;32708;51.212;6.788;2023-01-09T04:59:08;99069.38;;;8.33;100.00
46955;BME280;32708;51.212;6.788;2023-01-09T05:01:35;99064.34;;;8.60;100.00
46955;BME280;32708;51.212;6.788;2023-01-09T05:04:02;99068.91;;;8.71;100.00
46955;BME280;32708;51.212;6.788;2023-01-09T05:06:29;99069.06;;;8.63;100.00
46955;BME280;32708;51.212;6.788;2023-01-09T05:08:55;99079.00;;;8.71;100.00
46955;BME280;32708;51.212;6.788;2023-01-09T05:11:23;99072.97;;;8.49;100.00
46955;BME280;32708;51.212;6.788;2023-01-09T05:13:51;99082.00;;;8.66;100.00
46955;BME280;32708;51.212;6.788;2023-01-09T05:16:19;99077.63;;;8.77;100.00
46955;BME280;32708;51.212;6.788;2023-01-09T05:18:45;99079.34;;;8.69;100.00
46955;BME280;32708;51.212;6.788;2023-01-09T05:21:11;99073.09;;;8.81;100.00
46955;BME280;32708;51.212;6.788;2023-01-09T05:23:38;99078.13;;;8.95;100.00
46955;BME280;32708;51.212;6.788;2023-01-09T05:26:04;99085.50;;;8.66;100.00
46955;BME280;32708;51.212;6.788;2023-01-09T05:28:31;99087.13;;;8.83;100.00
46955;BME280;32708;51.212;6.788;2023-01-09T05:30:58;99089.28;;;8.77;100.00
46955;BME280;32708;51.212;6.788;2023-01-09T05:33:24;99070.94;;;9.18;100.00
46955;BME280;32708;51.212;6.788;2023-01-09T05:35:50;99078.22;;;9.14;100.00
46955;BME280;32708;51.212;6.788;2023-01-09T05:38:16;99085.31;;;8.59;100.00
46955;BME280;32708;51.212;6.788;2023-01-09T05:40:43;99084.00;;;8.97;100.00
46955;BME280;32708;51.212;6.788;2023-01-09T05:43:09;99089.81;;;9.11;100.00
46955;BME280;32708;51.212;6.788;2023-01-09T05:45:35;99083.78;;;9.33;100.00
46955;BME280;32708;51.212;6.788;2023-01-09T05:48:01;99092.72;;;9.18;100.00
46955;BME280;32708;51.212;6.788;2023-01-09T05:50:27;99090.06;;;9.06;100.00
46955;BME280;32708;51.212;6.788;2023-01-09T05:52:54;99089.56;;;9.00;100.00
46955;BME280;32708;51.212;6.788;2023-01-09T05:55:20;99099.31;;;9.33;100.00
46955;BME280;32708;51.212;6.788;2023-01-09T05:57:46;99091.41;;;9.28;100.00
46955;BME280;32708;51.212;6.788;2023-01-09T06:00:13;99096.16;;;9.15;100.00
46955;BME280;32708;51.212;6.788;2023-01-09T06:02:39;99086.25;;;9.23;100.00
46955;BME280;32708;51.212;6.788;2023-01-09T06:05:06;99094.41;;;9.54;100.00
46955;BME280;32708;51.212;6.788;2023-01-09T06:07:32;99085.34;;;9.19;100.00
46955;BME280;32708;51.212;6.788;2023-01-09T06:10:01;99086.34;;;9.58;100.00
46955;BME280;32708;51.212;6.788;2023-01-09T06:12:27;99086.00;;;9.44;100.00
46955;BME280;32708;51.212;6.788;2023-01-09T06:14:53;99084.13;;;9.48;100.00
46955;BME280;32708;51.212;6.788;2023-01-09T06:17:19;99089.75;;;9.71;100.00
46955;BME280;32708;51.212;6.788;2023-01-09T06:19:45;99079.81;;;9.62;100.00
46955;BME280;32708;51.212;6.788;2023-01-09T06:22:11;99077.88;;;9.47;100.00
46955;BME280;32708;51.212;6.788;2023-01-09T06:24:37;99086.41;;;9.46;100.00
46955;BME280;32708;51.212;6.788;2023-01-09T06:27:03;99082.72;;;9.54;100.00
46955;BME280;32708;51.212;6.788;2023-01-09T06:29:31;99086.25;;;9.54;100.00
46955;BME280;32708;51.212;6.788;2023-01-09T06:31:57;99081.69;;;9.58;100.00
46955;BME280;32708;51.212;6.788;2023-01-09T06:34:23;99086.84;;;9.32;100.00
46955;BME280;32708;51.212;6.788;2023-01-09T06:36:49;99094.50;;;9.58;100.00
46955;BME280;32708;51.212;6.788;2023-01-09T06:39:15;99086.97;;;9.51;100.00
46955;BME280;32708;51.212;6.788;2023-01-09T06:41:41;99094.34;;;9.67;100.00
46955;BME280;32708;51.212;6.788;2023-01-09T06:44:10;99092.66;;;9.46;100.00
46955;BME280;32708;51.212;6.788;2023-01-09T06:46:37;99085.47;;;9.38;100.00
46955;BME280;32708;51.212;6.788;2023-01-09T06:49:03;99101.38;;;9.52;100.00
46955;BME280;32708;51.212;6.788;2023-01-09T06:51:29;99103.91;;;9.60;100.00
46955;BME280;32708;51.212;6.788;2023-01-09T06:53:55;99102.25;;;9.72;100.00
46955;BME280;32708;51.212;6.788;2023-01-09T06:56:22;99099.59;;;9.59;100.00
46955;BME280;32708;51.212;6.788;2023-01-09T06:58:48;99096.94;;;9.63;100.00
46955;BME280;32708;51.212;6.788;2023-01-09T07:01:14;99087.41;;;9.37;100.00
46955;BME280;32708;51.212;6.788;2023-01-09T07:03:40;99093.28;;;9.55;100.00
46955;BME280;32708;51.212;6.788;2023-01-09T07:06:07;99096.16;;;9.62;100.00
46955;BME280;32708;51.212;6.788;2023-01-09T07:08:33;99085.97;;;9.59;100.00
46955;BME280;32708;51.212;6.788;2023-01-09T07:11:00;99093.44;;;9.31;100.00
46955;BME280;32708;51.212;6.788;2023-01-09T07:13:26;99089.94;;;9.46;100.00
46955;BME280;32708;51.212;6.788;2023-01-09T07:15:52;99093.56;;;9.50;100.00
46955;BME280;32708;51.212;6.788;2023-01-09T07:18:19;99095.13;;;9.51;100.00
46955;BME280;32708;51.212;6.788;2023-01-09T07:20:46;99095.22;;;9.39;100.00
46955;BME280;32708;51.212;6.788;2023-01-09T07:23:12;99093.81;;;9.45;100.00
46955;BME280;32708;51.212;6.788;2023-01-09T07:25:41;99093.44;;;9.62;100.00
46955;BME280;32708;51.212;6.788;2023-01-09T07:28:07;99102.13;;;9.84;100.00
46955;BME280;32708;51.212;6.788;2023-01-09T07:30:34;99096.41;;;9.89;100.00
46955;BME280;32708;51.212;6.788;2023-01-09T07:33:00;99100.22;;;9.37;100.00
46955;BME280;32708;51.212;6.788;2023-01-09T07:35:26;99110.50;;;9.44;100.00
46955;BME280;32708;51.212;6.788;2023-01-09T07:37:52;99115.69;;;9.64;100.00
46955;BME280;32708;51.212;6.788;2023-01-09T07:40:18;99108.66;;;9.63;100.00
46955;BME280;32708;51.212;6.788;2023-01-09T07:42:45;99116.31;;;9.58;100.00
46955;BME280;32708;51.212;6.788;2023-01-09T07:45:11;99112.69;;;9.38;100.00
46955;BME280;32708;51.212;6.788;2023-01-09T07:47:39;99114.53;;;9.50;100.00
46955;BME280;32708;51.212;6.788;2023-01-09T07:50:09;99124.22;;;9.79;100.00
46955;BME280;32708;51.212;6.788;2023-01-09T07:52:35;99116.50;;;9.65;100.00
46955;BME280;32708;51.212;6.788;2023-01-09T07:55:01;99123.41;;;9.94;100.00
46955;BME280;32708;51.212;6.788;2023-01-09T07:57:28;99121.41;;;9.59;100.00
46955;BME280;32708;51.212;6.788;2023-01-09T07:59:56;99123.69;;;9.57;100.00
46955;BME280;32708;51.212;6.788;2023-01-09T08:02:22;99125.19;;;9.86;100.00
46955;BME280;32708;51.212;6.788;2023-01-09T08:04:48;99132.41;;;9.79;100.00
46955;BME280;32708;51.212;6.788;2023-01-09T08:07:14;99135.81;;;9.76;100.00
46955;BME280;32708;51.212;6.788;2023-01-09T08:09:40;99135.63;;;9.69;100.00
46955;BME280;32708;51.212;6.788;2023-01-09T08:12:06;99140.22;;;9.80;100.00
46955;BME280;32708;51.212;6.788;2023-01-09T08:14:32;99139.25;;;9.73;100.00
46955;BME280;32708;51.212;6.788;2023-01-09T08:17:00;99129.19;;;9.92;100.00
46955;BME280;32708;51.212;6.788;2023-01-09T08:19:27;99129.91;;;9.89;100.00
46955;BME280;32708;51.212;6.788;2023-01-09T08:21:53;99128.47;;;10.11;100.00
46955;BME280;32708;51.212;6.788;2023-01-09T08:24:19;99142.66;;;9.54;100.00
46955;BME280;32708;51.212;6.788;2023-01-09T08:26:47;99147.44;;;9.73;100.00
46955;BME280;32708;51.212;6.788;2023-01-09T08:29:13;99142.50;;;9.94;100.00
46955;BME280;32708;51.212;6.788;2023-01-09T08:31:39;99136.41;;;10.01;100.00
46955;BME280;32708;51.212;6.788;2023-01-09T08:34:05;99138.75;;;10.18;100.00
46955;BME280;32708;51.212;6.788;2023-01-09T08:36:31;99134.31;;;9.94;100.00
46955;BME280;32708;51.212;6.788;2023-01-09T08:38:57;99128.56;;;9.99;100.00
46955;BME280;32708;51.212;6.788;2023-01-09T08:41:24;99144.41;;;9.78;100.00
46955;BME280;32708;51.212;6.788;2023-01-09T08:44:08;99137.59;;;10.19;100.00
46955;BME280;32708;51.212;6.788;2023-01-09T08:46:53;99143.53;;;9.89;100.00
46955;BME280;32708;51.212;6.788;2023-01-09T08:49:37;99152.63;;;9.93;100.00
46955;BME280;32708;51.212;6.788;2023-01-09T08:52:05;99149.09;;;9.93;100.00
46955;BME280;32708;51.212;6.788;2023-01-09T08:54:32;99151.63;;;10.02;100.00
46955;BME280;32708;51.212;6.788;2023-01-09T08:56:58;99150.22;;;10.08;100.00
46955;BME280;32708;51.212;6.788;2023-01-09T08:59:25;99169.06;;;10.29;100.00
46955;BME280;32708;51.212;6.788;2023-01-09T09:01:51;99163.59;;;9.97;100.00
46955;BME280;32708;51.212;6.788;2023-01-09T09:04:18;99165.00;;;10.23;100.00
46955;BME280;32708;51.212;6.788;2023-01-09T09:06:45;99167.38;;;10.24;100.00
46955;BME280;32708;51.212;6.788;2023-01-09T09:09:12;99175.25;;;10.13;100.00
46955;BME280;32708;51.212;6.788;2023-01-09T09:11:38;99168.59;;;10.27;100.00
46955;BME280;32708;51.212;6.788;2023-01-09T09:14:04;99167.28;;;10.56;100.00
46955;BME280;32708;51.212;6.788;2023-01-09T09:16:53;99185.88;;;10.50;100.00
46955;BME280;32708;51.212;6.788;2023-01-09T09:19:20;99181.50;;;10.45;100.00
46955;BME280;32708;51.212;6.788;2023-01-09T09:21:46;99178.72;;;10.26;100.00
46955;BME280;32708;51.212;6.788;2023-01-09T09:24:12;99182.59;;;10.25;100.00
46955;BME280;32708;51.212;6.788;2023-01-09T09:26:39;99183.44;;;10.45;100.00
46955;BME280;32708;51.212;6.788;2023-01-09T09:29:05;99183.81;;;10.28;100.00
46955;BME280;32708;51.212;6.788;2023-01-09T09:31:31;99190.38;;;10.58;100.00
46955;BME280;32708;51.212;6.788;2023-01-09T09:33:57;99198.81;;;10.53;100.00
46955;BME280;32708;51.212;6.788;2023-01-09T09:36:23;99203.63;;;10.25;100.00
46955;BME280;32708;51.212;6.788;2023-01-09T09:38:50;99205.78;;;10.51;100.00
46955;BME280;32708;51.212;6.788;2023-01-09T09:44:27;99221.13;;;10.74;100.00
46955;BME280;32708;51.212;6.788;2023-01-09T09:51:17;99222.66;;;10.91;100.00
46955;BME280;32708;51.212;6.788;2023-01-09T09:53:59;99226.63;;;10.94;100.00
46955;BME280;32708;51.212;6.788;2023-01-09T09:56:49;99223.88;;;10.94;100.00
46955;BME280;32708;51.212;6.788;2023-01-09T09:59:26;99243.81;;;10.79;100.00
46955;BME280;32708;51.212;6.788;2023-01-09T10:02:19;99250.72;;;10.72;100.00
46955;BME280;32708;51.212;6.788;2023-01-09T10:05:04;99259.66;;;10.89;100.00
46955;BME280;32708;51.212;6.788;2023-01-09T10:07:43;99266.28;;;10.88;100.00
46955;BME280;32708;51.212;6.788;2023-01-09T10:10:27;99254.59;;;10.71;100.00
46955;BME280;32708;51.212;6.788;2023-01-09T10:12:58;99258.69;;;11.16;100.00
46955;BME280;32708;51.212;6.788;2023-01-09T10:15:48;99262.72;;;10.68;100.00
46955;BME280;32708;51.212;6.788;2023-01-09T10:21:54;99260.19;;;10.79;100.00
46955;BME280;32708;51.212;6.788;2023-01-09T10:24:55;99268.06;;;10.64;100.00
46955;BME280;32708;51.212;6.788;2023-01-09T10:40:19;99277.25;;;10.56;100.00
46955;BME280;32708;51.212;6.788;2023-01-09T10:43:30;99268.53;;;10.66;100.00
46955;BME280;32708;51.212;6.788;2023-01-09T10:46:09;99273.25;;;10.69;100.00
46955;BME280;32708;51.212;6.788;2023-01-09T10:48:45;99284.28;;;10.57;100.00
46955;BME280;32708;51.212;6.788;2023-01-09T10:51:24;99279.25;;;10.75;100.00
46955;BME280;32708;51.212;6.788;2023-01-09T10:53:55;99278.50;;;10.59;100.00
46955;BME280;32708;51.212;6.788;2023-01-09T10:56:41;99276.50;;;10.75;100.00
46955;BME280;32708;51.212;6.788;2023-01-09T10:59:10;99275.13;;;10.65;100.00
46955;BME280;32708;51.212;6.788;2023-01-09T11:01:39;99277.78;;;10.46;100.00
46955;BME280;32708;51.212;6.788;2023-01-09T11:04:31;99279.53;;;10.54;100.00
46955;BME280;32708;51.212;6.788;2023-01-09T11:07:11;99281.06;;;10.87;100.00
46955;BME280;32708;51.212;6.788;2023-01-09T11:09:59;99281.56;;;10.92;100.00
46955;BME280;32708;51.212;6.788;2023-01-09T11:12:30;99276.63;;;10.63;100.00
46955;BME280;32708;51.212;6.788;2023-01-09T11:17:46;99272.22;;;10.74;100.00
46955;BME280;32708;51.212;6.788;2023-01-09T11:20:23;99276.25;;;10.64;100.00
46955;BME280;32708;51.212;6.788;2023-01-09T11:22:56;99269.75;;;11.04;100.00
46955;BME280;32708;51.212;6.788;2023-01-09T11:25:26;99271.75;;;11.07;100.00
46955;BME280;32708;51.212;6.788;2023-01-09T11:28:04;99269.47;;;11.28;100.00
46955;BME280;32708;51.212;6.788;2023-01-09T11:30:57;99260.84;;;11.46;100.00
46955;BME280;32708;51.212;6.788;2023-01-09T11:33:36;99279.94;;;10.88;100.00
46955;BME280;32708;51.212;6.788;2023-01-09T11:36:13;99259.63;;;11.24;100.00
46955;BME280;32708;51.212;6.788;2023-01-09T11:38:54;99280.53;;;11.16;100.00
46955;BME280;32708;51.212;6.788;2023-01-09T11:41:27;99283.84;;;11.25;100.00
46955;BME280;32708;51.212;6.788;2023-01-09T11:43:58;99279.28;;;10.94;100.00
46955;BME280;32708;51.212;6.788;2023-01-09T11:46:40;99285.13;;;10.77;100.00
46955;BME280;32708;51.212;6.788;2023-01-09T11:51:40;99296.06;;;11.12;100.00
46955;BME280;32708;51.212;6.788;2023-01-09T11:54:24;99297.63;;;10.78;100.00
46955;BME280;32708;51.212;6.788;2023-01-09T11:56:54;99308.19;;;10.95;100.00
46955;BME280;32708;51.212;6.788;2023-01-09T11:59:26;99310.78;;;10.72;100.00
46955;BME280;32708;51.212;6.788;2023-01-09T12:04:48;99318.72;;;10.46;100.00
46955;BME280;32708;51.212;6.788;2023-01-09T12:16:39;99334.06;;;10.51;100.00
46955;BME280;32708;51.212;6.788;2023-01-09T12:20:14;99344.63;;;10.08;100.00
46955;BME280;32708;51.212;6.788;2023-01-09T12:22:52;99344.88;;;10.03;100.00
46955;BME280;32708;51.212;6.788;2023-01-09T12:25:43;99338.25;;;10.32;100.00
46955;BME280;32708;51.212;6.788;2023-01-09T12:46:20;99352.63;;;10.29;100.00
46955;BME280;32708;51.212;6.788;2023-01-09T12:55:19;99355.59;;;10.56;100.00
46955;BME280;32708;51.212;6.788;2023-01-09T12:57:54;99357.97;;;10.41;100.00
46955;BME280;32708;51.212;6.788;2023-01-09T13:00:33;99372.16;;;10.31;100.00
46955;BME280;32708;51.212;6.788;2023-01-09T13:03:43;99384.66;;;10.20;100.00
46955;BME280;32708;51.212;6.788;2023-01-09T13:06:23;99384.03;;;10.39;100.00
46955;BME280;32708;51.212;6.788;2023-01-09T13:09:28;99385.63;;;10.56;100.00
46955;BME280;32708;51.212;6.788;2023-01-09T13:12:12;99395.31;;;10.53;100.00
46955;BME280;32708;51.212;6.788;2023-01-09T13:14:52;99386.50;;;10.75;100.00
46955;BME280;32708;51.212;6.788;2023-01-09T13:17:40;99392.41;;;10.18;100.00
46955;BME280;32708;51.212;6.788;2023-01-09T13:23:05;99402.88;;;10.44;100.00
46955;BME280;32708;51.212;6.788;2023-01-09T13:26:06;99407.78;;;10.38;100.00
46955;BME280;32708;51.212;6.788;2023-01-09T13:28:43;99397.25;;;10.84;100.00
46955;BME280;32708;51.212;6.788;2023-01-09T13:34:25;99418.47;;;10.43;100.00
46955;BME280;32708;51.212;6.788;2023-01-09T13:36:56;99424.78;;;10.19;100.00
46955;BME280;32708;51.212;6.788;2023-01-09T13:39:34;99436.28;;;10.25;100.00
46955;BME280;32708;51.212;6.788;2023-01-09T13:42:05;99437.78;;;10.10;100.00
46955;BME280;32708;51.212;6.788;2023-01-09T13:44:55;99443.25;;;10.23;100.00
46955;BME280;32708;51.212;6.788;2023-01-09T13:47:33;99430.75;;;10.09;100.00
46955;BME280;32708;51.212;6.788;2023-01-09T13:52:42;99437.47;;;10.40;100.00
46955;BME280;32708;51.212;6.788;2023-01-09T14:03:34;99440.19;;;10.56;100.00
46955;BME280;32708;51.212;6.788;2023-01-09T14:06:11;99452.38;;;10.58;100.00
46955;BME280;32708;51.212;6.788;2023-01-09T14:08:40;99457.38;;;10.56;100.00
46955;BME280;32708;51.212;6.788;2023-01-09T14:11:08;99462.44;;;10.42;100.00
46955;BME280;32708;51.212;6.788;2023-01-09T14:13:51;99478.38;;;10.40;100.00
46955;BME280;32708;51.212;6.788;2023-01-09T14:16:26;99483.16;;;10.43;100.00
46955;BME280;32708;51.212;6.788;2023-01-09T14:19:24;99491.81;;;10.61;100.00
46955;BME280;32708;51.212;6.788;2023-01-09T14:21:56;99491.84;;;10.77;100.00
46955;BME280;32708;51.212;6.788;2023-01-09T14:24:43;99507.94;;;10.66;100.00
46955;BME280;32708;51.212;6.788;2023-01-09T14:36:17;99529.59;;;10.18;100.00
46955;BME280;32708;51.212;6.788;2023-01-09T14:38:51;99541.06;;;10.36;100.00
46955;BME280;32708;51.212;6.788;2023-01-09T14:41:49;99545.16;;;10.30;100.00
46955;BME280;32708;51.212;6.788;2023-01-09T14:44:53;99554.09;;;10.43;100.00
46955;BME280;32708;51.212;6.788;2023-01-09T14:52:43;99572.50;;;10.46;100.00
46955;BME280;32708;51.212;6.788;2023-01-09T14:55:30;99579.31;;;10.80;100.00
46955;BME280;32708;51.212;6.788;2023-01-09T14:58:34;99587.19;;;10.69;100.00
46955;BME280;32708;51.212;6.788;2023-01-09T15:01:07;99598.66;;;10.47;100.00
46955;BME280;32708;51.212;6.788;2023-01-09T15:03:41;99593.13;;;10.31;100.00
46955;BME280;32708;51.212;6.788;2023-01-09T15:06:19;99600.16;;;10.32;100.00
46955;BME280;32708;51.212;6.788;2023-01-09T15:11:28;99602.09;;;10.32;100.00
46955;BME280;32708;51.212;6.788;2023-01-09T15:13:58;99614.47;;;10.41;100.00
46955;BME280;32708;51.212;6.788;2023-01-09T15:16:28;99616.53;;;10.32;100.00
46955;BME280;32708;51.212;6.788;2023-01-09T15:19:02;99625.28;;;10.38;100.00
46955;BME280;32708;51.212;6.788;2023-01-09T15:21:31;99625.06;;;10.43;100.00